Bookmark and Share
Track history (hours):
 

Kyoto Maru

Last reported at 2014-Apr-21 04:33 UTC. Time now 2014-Apr-21 04:49 UTC.
Position N 35°27' E 139°39'.

Length 34 m; draft 3.8 m.

Type: Tug. MMSI: 431002219.

NotesDate/timePositionNaut miles runAvg speedWind from/ knotsBaromVisibWave heightAir tempDewpointWater temp
2014-Apr-21 04:33N 35°27' E 139°39'0 0.0
2014-Apr-21 03:33N 35°27' E 139°39'0 0.0
2014-Apr-21 02:34N 35°27' E 139°39'0 0.0
2014-Apr-21 01:33N 35°27' E 139°39'0 0.0
2014-Apr-21 00:33N 35°27' E 139°39'0 0.0
2014-Apr-20 23:34N 35°27' E 139°39'3 2.8
2014-Apr-20 22:34N 35°29' E 139°42'1 1.4
2014-Apr-20 21:34N 35°28' E 139°40'1 1.4
2014-Apr-20 20:33N 35°27' E 139°39'0 0.0
2014-Apr-20 19:33N 35°27' E 139°39'0 0.0
2014-Apr-20 18:34N 35°27' E 139°39'0 0.0
2014-Apr-20 17:33N 35°27' E 139°39'0 0.0
2014-Apr-20 16:34N 35°27' E 139°39'0 0.0
2014-Apr-20 15:33N 35°27' E 139°39'0 0.0
2014-Apr-20 14:33N 35°27' E 139°39'0 0.0
2014-Apr-20 13:34N 35°27' E 139°39'0 0.0
2014-Apr-20 12:33N 35°27' E 139°39'0 0.2
2014-Apr-20 11:33N 35°27' E 139°39'3 2.7
2014-Apr-20 10:33N 35°28' E 139°43'0 0.5
2014-Apr-20 09:33N 35°27' E 139°42'0 0.0
2014-Apr-20 08:34N 35°27' E 139°42'1 0.8
2014-Apr-20 07:33N 35°27' E 139°42'1 1.2
2014-Apr-20 06:34N 35°27' E 139°40'1 1.0
2014-Apr-20 05:34N 35°27' E 139°39'0 0.0
2014-Apr-20 04:34N 35°27' E 139°39'0 0.5
2014-Apr-20 03:33N 35°27' E 139°39'5 5.0
2014-Apr-20 02:33N 35°29' E 139°45'1 1.1
2014-Apr-20 01:34N 35°28' E 139°45'5 5.2
2014-Apr-20 00:33N 35°27' E 139°39'0 0.0
2014-Apr-19 23:34N 35°27' E 139°39'0 0.0
2014-Apr-19 22:34N 35°27' E 139°39'0 0.0
2014-Apr-19 21:34N 35°27' E 139°39'0 0.0
2014-Apr-19 20:34N 35°27' E 139°39'0 0.0
2014-Apr-19 19:34N 35°27' E 139°39'0 0.0
2014-Apr-19 18:34N 35°27' E 139°39'0 0.0
2014-Apr-19 17:34N 35°27' E 139°39'0 0.0
2014-Apr-19 16:33N 35°27' E 139°39'0 0.0
2014-Apr-19 15:33N 35°27' E 139°39'0 0.0
2014-Apr-19 14:34N 35°27' E 139°39'0 0.0
2014-Apr-19 13:34N 35°27' E 139°39'0 0.0
2014-Apr-19 12:34N 35°27' E 139°39'0 0.0
2014-Apr-19 11:33N 35°27' E 139°39'0 0.0
2014-Apr-19 10:34N 35°27' E 139°39'0 0.0
2014-Apr-19 09:33N 35°27' E 139°39'0 0.0
2014-Apr-19 08:34N 35°27' E 139°39'0 0.0
2014-Apr-19 07:33N 35°27' E 139°39'0 0.0
2014-Apr-19 06:34N 35°27' E 139°39'1 0.5
2014-Apr-19 05:33N 35°27' E 139°39'3 2.9
2014-Apr-19 04:34N 35°24' E 139°39'0 0.1
2014-Apr-19 03:34N 35°24' E 139°39'5 4.9
2014-Apr-19 02:33N 35°28' E 139°43'2 2.2
2014-Apr-19 01:34N 35°26' E 139°42'0 0.0
2014-Apr-19 00:34N 35°26' E 139°42'0 0.0
2014-Apr-18 23:34N 35°26' E 139°42'0 0.0
2014-Apr-18 22:33N 35°26' E 139°42'2 2.1
2014-Apr-18 21:34N 35°24' E 139°41'2 2.0
2014-Apr-18 20:34N 35°26' E 139°42'2 2.2
2014-Apr-18 19:33N 35°27' E 139°39'0 0.0
2014-Apr-18 18:34N 35°27' E 139°39'0 0.0
2014-Apr-18 17:34N 35°27' E 139°39'0 0.0
2014-Apr-18 16:33N 35°27' E 139°39'0 0.0
2014-Apr-18 15:34N 35°27' E 139°39'0 0.0
2014-Apr-18 14:34N 35°27' E 139°39'0 0.0
2014-Apr-18 13:33N 35°27' E 139°39'0 0.0
2014-Apr-18 12:33N 35°27' E 139°39'1 0.7
2014-Apr-18 11:33N 35°27' E 139°40'2 2.2
2014-Apr-18 10:33N 35°26' E 139°42'1 0.6
2014-Apr-18 09:33N 35°27' E 139°42'1 1.5
2014-Apr-18 08:33N 35°27' E 139°41'1 0.9
2014-Apr-18 07:33N 35°26' E 139°41'1 1.2
2014-Apr-18 06:34N 35°27' E 139°42'0 0.0
2014-Apr-18 05:33N 35°27' E 139°42'0 0.0
2014-Apr-18 04:33N 35°27' E 139°42'1 1.1
2014-Apr-18 03:34N 35°28' E 139°43'0 0.1
2014-Apr-18 02:33N 35°28' E 139°43'0 0.4
2014-Apr-18 01:33N 35°28' E 139°44'0 0.3
2014-Apr-18 00:34N 35°28' E 139°43'3 3.4
2014-Apr-17 23:34N 35°27' E 139°39'0 0.0
2014-Apr-17 22:34N 35°27' E 139°39'0 0.0
2014-Apr-17 21:33N 35°27' E 139°39'0 0.0
2014-Apr-17 20:33N 35°27' E 139°39'0 0.0
2014-Apr-17 19:34N 35°27' E 139°39'0 0.0
2014-Apr-17 18:34N 35°27' E 139°39'0 0.0
2014-Apr-17 17:34N 35°27' E 139°39'0 0.0
2014-Apr-17 16:33N 35°27' E 139°39'0 0.0
2014-Apr-17 15:34N 35°27' E 139°39'0 0.0
2014-Apr-17 14:34N 35°27' E 139°39'0 0.0
2014-Apr-17 13:33N 35°27' E 139°39'0 0.0
2014-Apr-17 12:33N 35°27' E 139°39'0 0.0
2014-Apr-17 11:34N 35°27' E 139°39'0 0.0
2014-Apr-17 10:34N 35°27' E 139°39'0 0.0
2014-Apr-17 09:34N 35°27' E 139°39'0 0.0
2014-Apr-17 08:34N 35°27' E 139°39'0 0.0
2014-Apr-17 07:34N 35°27' E 139°39'2 2.3
2014-Apr-17 06:34N 35°27' E 139°42'0 0.2
2014-Apr-17 05:33N 35°27' E 139°42'0 0.0
2014-Apr-17 04:34N 35°27' E 139°42'0 0.0
2014-Apr-17 03:33N 35°27' E 139°42'0 0.0
2014-Apr-17 02:33N 35°27' E 139°42'1 1.1
2014-Apr-17 01:34N 35°28' E 139°43'0 0.3
2014-Apr-17 00:33N 35°27' E 139°43'1 0.7
2014-Apr-16 23:34N 35°27' E 139°42'0 0.0
2014-Apr-16 22:33N 35°27' E 139°42'2 1.7
2014-Apr-16 21:33N 35°27' E 139°40'1 1.1
2014-Apr-16 20:33N 35°26' E 139°41'2 1.5
2014-Apr-16 19:33N 35°27' E 139°39'0 0.0
2014-Apr-16 18:26N 35°27' E 139°39'0 0.0
2014-Apr-16 17:12N 35°27' E 139°39'0 0.0
2014-Apr-16 16:33N 35°27' E 139°39'0 0.0
2014-Apr-16 15:33N 35°27' E 139°39'0 0.0
2014-Apr-16 14:33N 35°27' E 139°39'0 0.0
2014-Apr-16 13:33N 35°27' E 139°39'0 0.0
2014-Apr-16 12:33N 35°27' E 139°39'0 0.0
2014-Apr-16 11:33N 35°27' E 139°39'0 0.0
2014-Apr-16 10:33N 35°27' E 139°39'0 0.0
2014-Apr-16 09:33N 35°27' E 139°39'4 3.6
2014-Apr-16 08:33N 35°24' E 139°41'1 0.8
2014-Apr-16 07:33N 35°24' E 139°40'1 1.4
2014-Apr-16 06:33N 35°24' E 139°42'3 3.4
2014-Apr-16 05:33N 35°27' E 139°39'0 0.0
2014-Apr-16 04:33N 35°27' E 139°39'0 0.0
2014-Apr-16 03:33N 35°27' E 139°39'0 0.0
2014-Apr-16 02:31N 35°27' E 139°39'0 0.0
2014-Apr-16 01:33N 35°27' E 139°39'0 0.0
2014-Apr-16 00:33N 35°27' E 139°39'3 3.0
2014-Apr-15 23:33N 35°28' E 139°43'1 1.2
2014-Apr-15 22:33N 35°27' E 139°43'3 2.8
2014-Apr-15 21:33N 35°27' E 139°39'0 0.0
2014-Apr-15 20:33N 35°27' E 139°39'0 0.0
2014-Apr-15 19:33N 35°27' E 139°39'0 0.0
2014-Apr-15 18:33N 35°27' E 139°39'0 0.0
2014-Apr-15 17:33N 35°27' E 139°39'0 0.0
2014-Apr-15 16:33N 35°27' E 139°39'0 0.0
2014-Apr-15 15:33N 35°27' E 139°39'0 0.0
2014-Apr-15 14:33N 35°27' E 139°39'0 0.0
2014-Apr-15 12:34N 35°27' E 139°39'0 0.0
2014-Apr-15 11:34N 35°27' E 139°39'0 0.0
2014-Apr-15 10:34N 35°27' E 139°39'0 0.0
2014-Apr-15 09:34N 35°27' E 139°39'0 0.0
2014-Apr-15 08:34N 35°27' E 139°39'0 0.0
2014-Apr-15 07:34N 35°27' E 139°39'0 0.0
2014-Apr-15 06:34N 35°27' E 139°39'0 0.0
2014-Apr-15 05:34N 35°27' E 139°39'0 0.0
2014-Apr-15 03:34N 35°27' E 139°39'0 0.0
2014-Apr-15 02:34N 35°27' E 139°39'0 0.0
2014-Apr-15 01:34N 35°27' E 139°39'0 0.0
2014-Apr-15 00:34N 35°27' E 139°39'0 0.0
2014-Apr-14 23:34N 35°27' E 139°39'0 0.0
2014-Apr-14 22:34N 35°27' E 139°39'1 1.5
2014-Apr-14 21:34N 35°28' E 139°40'2 1.9
2014-Apr-14 20:34N 35°28' E 139°43'1 1.1
2014-Apr-14 19:34N 35°26' E 139°43'0 0.0
2014-Apr-14 18:34N 35°26' E 139°43'2 1.9
2014-Apr-14 17:34N 35°27' E 139°40'2 1.9
2014-Apr-14 16:34N 35°26' E 139°43'2 1.7
2014-Apr-14 15:34N 35°26' E 139°41'2 1.7
2014-Apr-14 14:34N 35°28' E 139°41'1 1.0
2014-Apr-14 13:34N 35°27' E 139°42'3 1.6
2014-Apr-14 11:33N 35°29' E 139°39'2 1.5
2014-Apr-14 10:33N 35°27' E 139°39'0 0.0
2014-Apr-14 09:34N 35°27' E 139°39'3 2.6
2014-Apr-14 08:34N 35°26' E 139°42'3 2.7
2014-Apr-14 07:34N 35°27' E 139°39'0 0.5
2014-Apr-14 06:33N 35°27' E 139°39'0 0.0
2014-Apr-14 05:34N 35°27' E 139°39'0 0.0
2014-Apr-13 22:34N 35°27' E 139°39'0 0.0
2014-Apr-13 21:34N 35°27' E 139°39'0 0.0
2014-Apr-13 20:34N 35°27' E 139°39'0 0.0
2014-Apr-13 19:33N 35°27' E 139°39'0 0.0
2014-Apr-13 18:33N 35°27' E 139°39'0 0.0
2014-Apr-13 17:34N 35°27' E 139°39'0 0.0
2014-Apr-13 16:34N 35°27' E 139°39'0 0.0
2014-Apr-13 15:34N 35°27' E 139°39'0 0.0
2014-Apr-13 14:34N 35°27' E 139°39'0 0.0
2014-Apr-13 13:33N 35°27' E 139°39'0 0.0
2014-Apr-13 12:33N 35°27' E 139°39'0 0.0
2014-Apr-13 11:33N 35°27' E 139°39'0 0.0
2014-Apr-13 10:33N 35°27' E 139°39'0 0.0
2014-Apr-13 09:33N 35°27' E 139°39'0 0.0
2014-Apr-13 08:33N 35°27' E 139°39'0 0.0
2014-Apr-13 07:33N 35°27' E 139°39'2 1.7
2014-Apr-13 06:33N 35°27' E 139°41'4 3.6
2014-Apr-13 05:33N 35°29' E 139°45'2 1.7
2014-Apr-13 04:33N 35°27' E 139°45'4 4.4
2014-Apr-13 03:33N 35°27' E 139°39'0 0.0
2014-Apr-13 02:33N 35°27' E 139°39'0 0.0
2014-Apr-13 01:33N 35°27' E 139°39'0 0.0
2014-Apr-13 00:33N 35°27' E 139°39'0 0.0
2014-Apr-12 23:33N 35°27' E 139°39'6 6.3
2014-Apr-12 22:33N 35°29' E 139°46'4 3.7
2014-Apr-12 21:33N 35°29' E 139°42'3 3.0
2014-Apr-12 20:34N 35°27' E 139°39'0 0.0
2014-Apr-12 19:33N 35°27' E 139°39'0 0.0
2014-Apr-12 18:33N 35°27' E 139°39'0 0.0
2014-Apr-12 17:34N 35°27' E 139°39'0 0.0
2014-Apr-12 16:33N 35°27' E 139°39'0 0.0
2014-Apr-12 15:33N 35°27' E 139°39'0 0.0
2014-Apr-12 14:34N 35°27' E 139°39'0 0.0
2014-Apr-12 13:33N 35°27' E 139°39'0 0.0
2014-Apr-12 12:33N 35°27' E 139°39'0 0.0
2014-Apr-12 11:33N 35°27' E 139°39'0 0.0
2014-Apr-12 10:33N 35°27' E 139°39'0 0.4
2014-Apr-12 09:33N 35°27' E 139°39'3 2.7
2014-Apr-12 08:34N 35°27' E 139°43'1 0.6
2014-Apr-12 07:34N 35°27' E 139°43'3 2.9
2014-Apr-12 06:34N 35°27' E 139°39'0 0.0
2014-Apr-12 05:33N 35°27' E 139°39'0 0.0
2014-Apr-12 04:33N 35°27' E 139°39'0 0.0
2014-Apr-12 03:33N 35°27' E 139°39'0 0.0
2014-Apr-12 02:33N 35°27' E 139°39'0 0.0
2014-Apr-12 01:33N 35°27' E 139°39'0 0.0
2014-Apr-12 00:34N 35°27' E 139°39'2 2.0
2014-Apr-11 23:34N 35°28' E 139°42'2 2.3
2014-Apr-11 22:33N 35°27' E 139°44'2 2.3
2014-Apr-11 21:33N 35°29' E 139°45'3 3.3
2014-Apr-11 20:33N 35°27' E 139°42'2 1.9
2014-Apr-11 19:33N 35°27' E 139°39'0 0.0
2014-Apr-11 18:34N 35°27' E 139°39'0 0.0
2014-Apr-11 17:33N 35°27' E 139°39'0 0.0
2014-Apr-11 16:33N 35°27' E 139°39'0 0.0
2014-Apr-11 15:33N 35°27' E 139°39'0 0.0
2014-Apr-11 14:33N 35°27' E 139°39'0 0.0
2014-Apr-11 13:34N 35°27' E 139°39'0 0.0
2014-Apr-11 12:34N 35°27' E 139°39'0 0.0
2014-Apr-11 11:34N 35°27' E 139°39'0 0.0
2014-Apr-11 10:33N 35°27' E 139°39'0 0.0
2014-Apr-11 09:33N 35°27' E 139°39'0 0.0
2014-Apr-11 08:34N 35°27' E 139°39'0 0.0
2014-Apr-11 07:33N 35°27' E 139°39'0 0.0
2014-Apr-11 06:34N 35°27' E 139°39'0 0.0
2014-Apr-11 05:34N 35°27' E 139°39'0 0.0
2014-Apr-11 04:33N 35°27' E 139°39'  

Dump ship's entire track history

sailing weather and tide predictions

Kyoto Maru — JD3149 — position and weather